Time;durP1;ratioP1;P1;durP2;ratioP2;P2;SDS_P1;SDS_P2;PMS_P1;PMS_P2;Temp;Humidity;BMP_temperature;BMP_pressure;BME280_temperature;BME280_humidity;BME280_pressure;Samples;Min_cycle;Max_cycle;Signal;HPM_P1;HPM_P2
2022/08/20 00:00:18;;;;;;;31.70;23.55;;;18.40;99.90;;;;;;5127359;27;20573;-63
2022/08/20 00:02:53;;;;;;;27.95;22.85;;;18.30;99.90;;;;;;5108739;27;20488;-63
2022/08/20 00:05:31;;;;;;;33.45;24.75;;;18.30;99.90;;;;;;5109592;27;20551;-63
2022/08/20 00:08:00;;;;;;;43.45;28.25;;;18.40;99.90;;;;;;5116616;27;20039;-63
2022/08/20 00:10:28;;;;;;;41.53;26.73;;;18.00;99.90;;;;;;5116022;27;20043;-63
2022/08/20 00:12:54;;;;;;;34.40;24.73;;;18.00;99.90;;;;;;5125693;27;20119;-64
2022/08/20 00:15:24;;;;;;;35.88;25.05;;;18.00;99.90;;;;;;5117723;27;20031;-63
2022/08/20 00:17:51;;;;;;;29.58;23.50;;;18.30;99.90;;;;;;5126638;27;20089;-63
2022/08/20 00:20:19;;;;;;;36.00;26.33;;;18.10;99.90;;;;;;5103474;27;20331;-63
2022/08/20 00:22:45;;;;;;;47.60;29.50;;;18.20;99.90;;;;;;5129346;27;20042;-63
2022/08/20 00:25:12;;;;;;;40.95;28.40;;;18.00;99.90;;;;;;5128631;27;20038;-64
2022/08/20 00:27:38;;;;;;;38.50;27.83;;;18.00;99.90;;;;;;5111122;27;20039;-63
2022/08/20 00:30:06;;;;;;;30.38;22.70;;;18.10;99.90;;;;;;5128051;27;20046;-63
2022/08/20 00:32:42;;;;;;;30.27;23.30;;;18.00;99.90;;;;;;5110909;27;20091;-63
2022/08/20 00:35:08;;;;;;;32.25;22.65;;;18.40;99.90;;;;;;5128140;27;20049;-63
2022/08/20 00:37:34;;;;;;;28.05;21.92;;;18.40;99.90;;;;;;5129433;27;20047;-63
2022/08/20 00:39:59;;;;;;;31.80;22.58;;;18.10;99.90;;;;;;5111620;27;20083;-63
2022/08/20 00:42:25;;;;;;;27.83;22.35;;;18.40;99.90;;;;;;5128353;27;20051;-63
2022/08/20 00:44:51;;;;;;;33.95;24.23;;;18.00;99.90;;;;;;5128427;27;20046;-63
2022/08/20 00:47:17;;;;;;;25.02;19.20;;;18.00;99.90;;;;;;5128406;27;20034;-63
2022/08/20 00:49:44;;;;;;;38.47;25.75;;;18.30;99.90;;;;;;5144935;27;20043;-63
2022/08/20 00:52:18;;;;;;;30.90;21.45;;;18.20;99.90;;;;;;5110460;27;20038;-63
2022/08/20 00:54:48;;;;;;;25.45;18.20;;;18.30;99.90;;;;;;5148492;27;20030;-63
2022/08/20 00:57:28;;;;;;;26.05;16.35;;;18.00;99.90;;;;;;5129260;27;20053;-63
2022/08/20 00:59:56;;;;;;;26.33;17.02;;;17.90;99.90;;;;;;5119188;27;20043;-62
2022/08/20 01:02:24;;;;;;;19.77;14.57;;;18.10;99.90;;;;;;5128868;27;20129;-64
2022/08/20 01:04:53;;;;;;;21.15;14.18;;;18.10;99.90;;;;;;5124359;27;20058;-63
2022/08/20 01:07:21;;;;;;;21.42;12.38;;;17.90;99.90;;;;;;5124676;27;20114;-63
2022/08/20 01:09:47;;;;;;;19.88;14.00;;;18.20;99.90;;;;;;5124977;27;20046;-63
2022/08/20 01:12:15;;;;;;;20.38;12.57;;;17.90;99.90;;;;;;5125480;27;20393;-63
2022/08/20 01:14:45;;;;;;;18.98;11.05;;;18.20;99.90;;;;;;5125953;27;20507;-63
2022/08/20 01:17:17;;;;;;;22.08;11.02;;;18.20;99.90;;;;;;5116218;27;20585;-62
2022/08/20 01:19:56;;;;;;;16.67;9.50;;;18.20;99.90;;;;;;5113843;27;20046;-63
2022/08/20 01:25:52;;;;;;;18.08;10.02;;;17.80;99.90;;;;;;5126393;27;20039;-63
2022/08/20 01:28:38;;;;;;;19.52;11.02;;;17.90;99.90;;;;;;5123950;27;20046;-63
2022/08/20 01:31:06;;;;;;;18.20;9.57;;;18.00;99.90;;;;;;5123840;27;20051;-63
2022/08/20 01:33:32;;;;;;;17.33;8.35;;;17.70;99.90;;;;;;5123292;27;20427;-65
2022/08/20 01:35:58;;;;;;;17.88;8.13;;;17.70;99.90;;;;;;5122326;27;20863;-63
2022/08/20 01:38:24;;;;;;;17.45;8.23;;;17.60;99.90;;;;;;5102231;27;20035;-63
2022/08/20 01:41:14;;;;;;;17.08;9.25;;;17.60;99.90;;;;;;5124708;27;20042;-62
2022/08/20 01:43:40;;;;;;;21.65;10.20;;;17.60;99.90;;;;;;5123094;27;20509;-63
2022/08/20 01:46:09;;;;;;;16.60;8.30;;;17.90;99.90;;;;;;5123034;27;20122;-63
2022/08/20 01:48:36;;;;;;;15.35;8.55;;;17.90;99.90;;;;;;5124932;27;20103;-62
2022/08/20 01:51:15;;;;;;;20.35;9.00;;;17.60;99.90;;;;;;5123698;27;20085;-63
2022/08/20 01:53:45;;;;;;;14.25;8.52;;;17.60;99.90;;;;;;5122597;27;20515;-62
2022/08/20 01:56:15;;;;;;;17.17;8.50;;;17.90;99.90;;;;;;5096951;27;20035;-63
2022/08/20 01:58:45;;;;;;;16.33;8.35;;;17.60;99.90;;;;;;5123010;27;20066;-63
2022/08/20 02:01:31;;;;;;;16.05;8.82;;;17.60;99.90;;;;;;5123913;27;20508;-64
2022/08/20 02:03:58;;;;;;;19.92;8.98;;;17.50;99.90;;;;;;5140549;27;20043;-64
2022/08/20 02:06:26;;;;;;;12.48;6.57;;;17.80;99.90;;;;;;5123373;27;20489;-63
2022/08/20 02:08:58;;;;;;;13.93;7.68;;;17.40;99.90;;;;;;5123213;27;20390;-62
2022/08/20 02:11:26;;;;;;;15.00;7.68;;;17.70;99.90;;;;;;5124456;27;20035;-63
2022/08/20 02:13:53;;;;;;;13.73;7.75;;;17.70;99.90;;;;;;5097341;27;20112;-65
2022/08/20 02:16:27;;;;;;;14.55;7.72;;;17.50;99.90;;;;;;5123614;27;20418;-64
2022/08/20 02:18:57;;;;;;;19.60;8.63;;;17.40;99.90;;;;;;5139170;27;20068;-65
2022/08/20 02:21:27;;;;;;;17.20;8.85;;;17.30;99.90;;;;;;5095999;27;21555;-65
2022/08/20 02:23:54;;;;;;;17.73;8.70;;;17.60;99.90;;;;;;5112577;27;20592;-63
2022/08/20 02:26:20;;;;;;;15.90;7.88;;;17.20;99.90;;;;;;5106198;27;20075;-63
2022/08/20 02:28:48;;;;;;;15.93;7.97;;;17.10;99.90;;;;;;5122665;27;20058;-66
2022/08/20 02:31:16;;;;;;;19.42;8.80;;;17.10;99.90;;;;;;5121830;27;20585;-65
2022/08/20 02:33:45;;;;;;;17.45;7.25;;;17.20;99.90;;;;;;5120796;27;20042;-65
2022/08/20 02:36:13;;;;;;;16.90;7.05;;;17.30;99.90;;;;;;5111153;27;20035;-66
2022/08/20 02:38:40;;;;;;;17.35;7.63;;;16.90;99.90;;;;;;5113663;27;20045;-64
2022/08/20 02:41:06;;;;;;;17.88;7.13;;;16.90;99.90;;;;;;5110125;27;20081;-64
2022/08/20 02:43:32;;;;;;;15.75;7.50;;;16.90;99.90;;;;;;5111342;27;20035;-64
2022/08/20 02:45:58;;;;;;;13.02;6.22;;;17.10;99.90;;;;;;5095779;27;20046;-64
2022/08/20 02:48:25;;;;;;;14.80;5.82;;;16.80;99.90;;;;;;5113274;27;20078;-64
2022/08/20 02:51:02;;;;;;;17.85;6.63;;;16.90;99.90;;;;;;5114500;27;20130;-65
2022/08/20 02:53:31;;;;;;;16.25;4.97;;;17.00;99.90;;;;;;5115932;27;20560;-64
2022/08/20 02:55:58;;;;;;;17.58;5.40;;;16.60;99.90;;;;;;5113362;27;20046;-64
2022/08/20 02:58:24;;;;;;;16.55;6.03;;;16.60;99.90;;;;;;5103330;27;20111;-64
2022/08/20 03:00:50;;;;;;;14.63;5.20;;;16.50;99.90;;;;;;5112589;27;20280;-65
2022/08/20 03:03:21;;;;;;;10.90;4.90;;;16.50;99.90;;;;;;5113044;27;20715;-64
2022/08/20 03:05:48;;;;;;;16.48;3.75;;;16.60;99.90;;;;;;5086753;27;20092;-65
2022/08/20 03:08:15;;;;;;;13.95;4.90;;;16.40;99.90;;;;;;5085857;27;20050;-64
2022/08/20 03:10:43;;;;;;;17.20;5.50;;;16.40;99.90;;;;;;5112659;27;20039;-64
2022/08/20 03:13:12;;;;;;;16.88;4.30;;;16.50;99.90;;;;;;5111945;27;20043;-64
2022/08/20 03:15:47;;;;;;;12.52;3.55;;;16.20;99.90;;;;;;5102579;27;20118;-64
2022/08/20 03:18:14;;;;;;;16.27;4.00;;;16.40;99.90;;;;;;5111381;27;20110;-64
2022/08/20 03:20:41;;;;;;;14.75;4.47;;;16.20;99.90;;;;;;5111269;27;20760;-64
2022/08/20 03:23:07;;;;;;;15.35;3.35;;;16.20;99.90;;;;;;5097069;28;20035;-64
2022/08/20 03:25:33;;;;;;;13.13;3.00;;;16.30;99.90;;;;;;5110616;28;20185;-65
2022/08/20 03:27:58;;;;;;;20.73;3.63;;;16.10;99.90;;;;;;5112128;28;20579;-64
2022/08/20 03:30:26;;;;;;;12.13;3.03;;;16.10;99.90;;;;;;5112238;28;20542;-64
2022/08/20 03:32:53;;;;;;;17.13;3.55;;;16.20;99.90;;;;;;5112377;28;20239;-64
2022/08/20 03:35:21;;;;;;;14.23;3.53;;;16.00;99.90;;;;;;5112474;28;20039;-65
2022/08/20 03:37:47;;;;;;;13.35;3.55;;;16.20;99.90;;;;;;5112690;28;20035;-64
2022/08/20 03:40:20;;;;;;;18.30;3.63;;;15.80;99.90;;;;;;5109549;28;20473;-65
2022/08/20 03:42:46;;;;;;;16.55;3.17;;;16.00;99.90;;;;;;5109523;28;20189;-64
2022/08/20 03:45:12;;;;;;;16.02;3.33;;;15.70;99.90;;;;;;5109250;28;20108;-65
2022/08/20 03:47:39;;;;;;;12.85;3.08;;;15.80;99.90;;;;;;5110631;28;20039;-64
2022/08/20 03:50:08;;;;;;;16.17;3.00;;;15.60;99.90;;;;;;5093598;28;20380;-65
2022/08/20 03:52:34;;;;;;;19.33;3.65;;;15.70;99.90;;;;;;5093918;27;20495;-64
2022/08/20 03:55:00;;;;;;;11.45;3.35;;;15.70;99.90;;;;;;5090389;27;20576;-64
2022/08/20 03:57:27;;;;;;;15.05;3.40;;;15.40;99.90;;;;;;5114114;27;20043;-65
2022/08/20 03:59:53;;;;;;;13.27;4.30;;;15.50;99.90;;;;;;5114491;27;20054;-64
2022/08/20 04:02:18;;;;;;;14.70;3.92;;;15.50;99.90;;;;;;5079669;27;20250;-65
2022/08/20 04:04:44;;;;;;;21.02;4.72;;;15.40;99.90;;;;;;5113773;27;20047;-64
2022/08/20 04:07:13;;;;;;;20.23;4.30;;;15.20;99.90;;;;;;5110773;27;20309;-64
2022/08/20 04:09:39;;;;;;;14.10;3.38;;;15.20;99.90;;;;;;5093092;27;20416;-65
2022/08/20 04:12:06;;;;;;;16.30;3.40;;;15.30;99.90;;;;;;5111679;27;20043;-64
2022/08/20 04:14:35;;;;;;;15.63;4.10;;;15.20;99.90;;;;;;5110383;27;20759;-64
2022/08/20 04:17:05;;;;;;;14.98;4.03;;;15.20;99.90;;;;;;5094165;27;20070;-64
2022/08/20 04:19:30;;;;;;;13.95;3.38;;;15.10;99.90;;;;;;5110793;27;20559;-64
2022/08/20 04:21:56;;;;;;;19.15;4.82;;;15.20;99.90;;;;;;5111139;27;20132;-64
2022/08/20 04:24:22;;;;;;;14.80;4.00;;;15.40;99.90;;;;;;5110687;27;20051;-64
2022/08/20 04:26:47;;;;;;;15.90;3.20;;;15.10;99.90;;;;;;5110595;27;20317;-64
2022/08/20 04:29:13;;;;;;;15.15;3.53;;;15.20;99.90;;;;;;5093790;27;20039;-64
2022/08/20 04:31:39;;;;;;;13.65;3.08;;;15.20;99.90;;;;;;5110482;27;20527;-64
2022/08/20 04:34:08;;;;;;;13.77;3.28;;;15.20;99.90;;;;;;5110312;27;20461;-64
2022/08/20 04:36:34;;;;;;;15.02;3.30;;;15.40;99.90;;;;;;5110438;27;20054;-64
2022/08/20 04:39:00;;;;;;;15.48;3.53;;;15.20;99.90;;;;;;5126197;27;20039;-64
2022/08/20 04:41:26;;;;;;;14.50;3.70;;;15.40;99.90;;;;;;5108381;27;20380;-64
2022/08/20 04:43:53;;;;;;;13.95;2.95;;;15.30;99.90;;;;;;5109580;27;20103;-65
2022/08/20 04:46:22;;;;;;;19.58;3.85;;;15.10;99.90;;;;;;5110229;27;20839;-64
2022/08/20 04:48:48;;;;;;;17.15;3.55;;;15.10;99.90;;;;;;5108774;27;20118;-64
2022/08/20 04:51:13;;;;;;;17.17;3.10;;;15.30;99.90;;;;;;5083657;27;20539;-64
2022/08/20 04:53:39;;;;;;;16.08;3.83;;;15.30;99.90;;;;;;5111055;27;20959;-64
2022/08/20 04:56:06;;;;;;;15.25;3.50;;;15.20;99.90;;;;;;5079903;27;20474;-65
2022/08/20 04:58:37;;;;;;;17.17;4.30;;;15.20;99.90;;;;;;5108520;27;20043;-64
2022/08/20 05:01:08;;;;;;;18.63;4.32;;;15.10;99.90;;;;;;5109343;27;20048;-64
2022/08/20 05:03:39;;;;;;;11.95;3.28;;;15.10;99.90;;;;;;5091409;28;20039;-64
2022/08/20 05:06:09;;;;;;;15.20;3.75;;;15.00;99.90;;;;;;5125148;27;20054;-64
2022/08/20 05:08:37;;;;;;;19.63;3.22;;;15.10;99.90;;;;;;5084530;27;20074;-64
2022/08/20 05:11:03;;;;;;;15.15;3.88;;;15.00;99.90;;;;;;5114825;27;20057;-64
2022/08/20 05:13:29;;;;;;;14.73;3.20;;;15.10;99.90;;;;;;5129196;27;20046;-63
2022/08/20 05:15:56;;;;;;;15.52;3.30;;;15.20;99.90;;;;;;5131106;27;20045;-64
2022/08/20 05:18:25;;;;;;;16.02;4.22;;;15.30;99.90;;;;;;5112710;27;20279;-64
2022/08/20 05:20:51;;;;;;;14.18;3.17;;;15.10;99.90;;;;;;5111935;27;20597;-64
2022/08/20 05:23:18;;;;;;;12.73;2.70;;;15.20;99.90;;;;;;5112068;27;20137;-63
2022/08/20 05:25:48;;;;;;;12.95;2.85;;;15.20;99.90;;;;;;5113100;27;20035;-63
2022/08/20 05:28:23;;;;;;;12.15;3.25;;;15.10;99.90;;;;;;5128202;27;20043;-64
2022/08/20 05:30:50;;;;;;;15.38;3.25;;;15.30;99.90;;;;;;5112489;27;20817;-64
2022/08/20 05:33:18;;;;;;;15.85;3.65;;;15.10;99.90;;;;;;5113708;27;20506;-64
2022/08/20 05:35:46;;;;;;;16.60;3.72;;;15.20;99.90;;;;;;5113996;27;20062;-65
2022/08/20 05:38:14;;;;;;;12.07;3.33;;;15.40;99.90;;;;;;5130305;27;20058;-65
2022/08/20 05:40:41;;;;;;;15.77;3.25;;;15.10;99.90;;;;;;5110127;27;20045;-64
2022/08/20 05:43:07;;;;;;;10.90;3.15;;;15.20;99.90;;;;;;5110146;27;20052;-65
2022/08/20 05:45:36;;;;;;;15.40;2.20;;;15.10;99.90;;;;;;5102827;27;20050;-64
2022/08/20 05:48:11;;;;;;;10.98;2.28;;;15.20;99.90;;;;;;5112061;27;20043;-64
2022/08/20 05:50:42;;;;;;;14.27;2.88;;;15.40;99.90;;;;;;5130389;27;20042;-65
2022/08/20 05:53:08;;;;;;;13.32;2.28;;;15.40;99.90;;;;;;5076109;27;20043;-64
2022/08/20 05:55:36;;;;;;;14.75;2.35;;;15.20;99.90;;;;;;5130834;27;20416;-64
2022/08/20 05:58:07;;;;;;;14.35;2.58;;;15.30;99.90;;;;;;5112185;27;20519;-64
2022/08/20 06:00:34;;;;;;;12.98;2.30;;;15.40;99.90;;;;;;5114776;27;20042;-64
2022/08/20 06:05:45;;;;;;;13.05;2.50;;;15.20;99.90;;;;;;5111155;27;20167;-64
2022/08/20 06:08:11;;;;;;;9.35;2.03;;;15.40;99.90;;;;;;5109423;27;20347;-64
2022/08/20 06:10:39;;;;;;;9.70;1.70;;;15.50;99.90;;;;;;5095675;27;20038;-64
2022/08/20 06:13:05;;;;;;;17.63;2.63;;;15.50;99.90;;;;;;5111753;27;20504;-64
2022/08/20 06:15:32;;;;;;;11.43;1.90;;;15.80;99.90;;;;;;5111125;27;20150;-64
2022/08/20 06:17:58;;;;;;;8.75;1.35;;;16.00;99.90;;;;;;5093285;27;20039;-64
2022/08/20 06:20:25;;;;;;;10.57;1.83;;;16.40;99.90;;;;;;5111220;27;20483;-64
2022/08/20 06:22:50;;;;;;;7.57;1.42;;;16.70;99.90;;;;;;5130482;27;20057;-64
2022/08/20 06:25:16;;;;;;;10.20;1.23;;;17.10;99.90;;;;;;5129582;27;20466;-66
2022/08/20 06:27:43;;;;;;;8.23;0.98;;;17.40;99.90;;;;;;5112189;27;20046;-65
2022/08/20 06:30:11;;;;;;;10.07;1.00;;;17.60;99.90;;;;;;5096605;27;20057;-64
2022/08/20 06:32:37;;;;;;;9.80;1.05;;;18.00;99.90;;;;;;5094889;27;20087;-64
2022/08/20 06:35:05;;;;;;;7.40;0.95;;;18.30;99.90;;;;;;5113100;27;20206;-65
2022/08/20 06:37:35;;;;;;;9.60;1.30;;;18.40;99.90;;;;;;5112251;27;20314;-64
2022/08/20 06:40:06;;;;;;;7.63;0.80;;;18.70;99.90;;;;;;5113250;27;20098;-65
2022/08/20 06:42:32;;;;;;;8.55;0.80;;;19.00;99.90;;;;;;5112188;27;20038;-65
2022/08/20 06:44:59;;;;;;;7.07;0.98;;;19.20;99.90;;;;;;5079131;27;20682;-66
2022/08/20 06:47:25;;;;;;;8.68;0.98;;;19.40;99.90;;;;;;5109930;27;20476;-64
2022/08/20 06:49:50;;;;;;;7.05;0.80;;;19.60;99.90;;;;;;5109769;27;20042;-65
2022/08/20 06:52:16;;;;;;;8.88;1.05;;;19.60;99.90;;;;;;5109775;27;20083;-64
2022/08/20 06:54:43;;;;;;;7.82;1.08;;;19.60;99.90;;;;;;5111542;27;20035;-64
2022/08/20 06:57:09;;;;;;;5.75;0.73;;;19.70;99.90;;;;;;5128249;27;20112;-65
2022/08/20 06:59:35;;;;;;;7.93;0.70;;;19.90;99.90;;;;;;5109573;27;20038;-65
2022/08/20 07:02:01;;;;;;;9.25;0.70;;;20.00;99.90;;;;;;5111570;27;20035;-65
2022/08/20 07:04:27;;;;;;;7.82;1.13;;;20.20;99.90;;;;;;5129564;27;20612;-64
2022/08/20 07:06:56;;;;;;;5.88;0.57;;;20.40;99.90;;;;;;5112561;27;20458;-65
2022/08/20 07:09:22;;;;;;;9.77;1.13;;;20.70;99.90;;;;;;5109108;27;20535;-64
2022/08/20 07:11:48;;;;;;;9.02;1.30;;;20.80;99.90;;;;;;5110657;27;20047;-65
2022/08/20 07:14:15;;;;;;;7.72;0.70;;;21.00;99.90;;;;;;5109855;27;20046;-65
2022/08/20 07:16:41;;;;;;;7.13;0.45;;;21.10;99.90;;;;;;5074515;27;20149;-64
2022/08/20 07:19:07;;;;;;;5.05;0.40;;;20.80;99.90;;;;;;5092792;27;20045;-65
2022/08/20 07:21:33;;;;;;;4.13;0.50;;;21.20;99.90;;;;;;5101739;27;20204;-64
2022/08/20 07:23:59;;;;;;;6.38;0.77;;;21.10;99.90;;;;;;5127638;27;20285;-65
2022/08/20 07:26:25;;;;;;;5.20;0.60;;;21.10;99.90;;;;;;5092950;27;20037;-65
2022/08/20 07:28:51;;;;;;;7.03;0.60;;;21.30;99.90;;;;;;5126441;27;20373;-65
2022/08/20 07:34:02;;;;;;;4.60;0.60;;;21.70;99.90;;;;;;5111511;27;20124;-65
2022/08/20 07:36:28;;;;;;;4.30;0.47;;;21.50;99.90;;;;;;5100282;27;20875;-63
2022/08/20 07:38:54;;;;;;;6.10;0.70;;;21.90;99.90;;;;;;5100128;27;20085;-65
2022/08/20 07:41:20;;;;;;;4.30;0.50;;;21.60;99.90;;;;;;5114434;27;20042;-65
2022/08/20 07:43:46;;;;;;;5.80;0.50;;;21.40;99.90;;;;;;5113852;27;20119;-65
2022/08/20 07:46:14;;;;;;;9.57;0.80;;;21.90;99.90;;;;;;5114590;27;20053;-65
2022/08/20 07:48:45;;;;;;;8.15;0.68;;;22.00;99.90;;;;;;5114252;27;20055;-66
2022/08/20 07:51:12;;;;;;;6.07;0.40;;;22.00;99.90;;;;;;5133048;27;20382;-65
2022/08/20 07:53:39;;;;;;;4.95;0.43;;;21.40;99.90;;;;;;5114085;27;20054;-65
2022/08/20 07:56:09;;;;;;;2.75;0.50;;;21.70;99.90;;;;;;5114306;27;20443;-65
2022/08/20 07:58:37;;;;;;;5.70;0.50;;;22.40;99.90;;;;;;5114870;27;20130;-65
2022/08/20 08:01:04;;;;;;;2.63;0.38;;;22.70;99.90;;;;;;5114776;27;20053;-65
2022/08/20 08:03:31;;;;;;;6.18;0.90;;;22.50;99.90;;;;;;5113959;27;20046;-62
2022/08/20 08:05:57;;;;;;;5.38;0.40;;;22.50;99.90;;;;;;5114435;27;20086;-65
2022/08/20 08:08:27;;;;;;;6.30;0.50;;;22.50;99.90;;;;;;5132373;27;20592;-66
2022/08/20 08:11:02;;;;;;;5.22;0.45;;;22.60;99.90;;;;;;5133321;27;20051;-63
2022/08/20 08:13:35;;;;;;;6.43;0.70;;;22.90;99.90;;;;;;5114263;27;20122;-65
2022/08/20 08:16:03;;;;;;;5.50;0.52;;;22.80;99.90;;;;;;5113635;27;20164;-65
2022/08/20 08:18:37;;;;;;;5.57;0.60;;;23.00;99.90;;;;;;5114263;27;20373;-66
2022/08/20 08:21:05;;;;;;;4.25;0.52;;;23.50;99.90;;;;;;5114143;27;20552;-66
2022/08/20 08:23:31;;;;;;;5.43;0.50;;;23.80;99.90;;;;;;5133528;27;20051;-66
2022/08/20 08:25:57;;;;;;;6.20;0.65;;;23.70;99.90;;;;;;5114465;27;20346;-66
2022/08/20 08:28:24;;;;;;;5.18;0.40;;;23.40;99.90;;;;;;5113450;27;20046;-66
2022/08/20 08:30:49;;;;;;;4.45;0.50;;;23.00;99.90;;;;;;5114184;27;20051;-65
2022/08/20 08:33:27;;;;;;;6.28;0.60;;;22.70;99.90;;;;;;5096669;27;20562;-65
2022/08/20 08:35:56;;;;;;;5.22;0.50;;;22.80;99.90;;;;;;5097946;27;20047;-66
2022/08/20 08:38:23;;;;;;;5.82;0.77;;;22.80;99.90;;;;;;5113942;27;20492;-66
2022/08/20 08:40:55;;;;;;;4.32;0.40;;;22.70;99.90;;;;;;5117401;27;20539;-66
2022/08/20 08:43:24;;;;;;;5.70;0.32;;;22.90;99.90;;;;;;5117478;27;20353;-65
2022/08/20 08:46:04;;;;;;;3.72;0.47;;;23.00;99.90;;;;;;5117795;27;20448;-65
2022/08/20 08:48:43;;;;;;;4.95;0.47;;;22.60;99.90;;;;;;5117550;27;20043;-65
2022/08/20 08:51:13;;;;;;;3.03;0.30;;;23.10;99.90;;;;;;5117665;27;20042;-65
2022/08/20 08:53:45;;;;;;;4.07;0.40;;;23.60;99.90;;;;;;5117062;27;20044;-65
2022/08/20 08:56:13;;;;;;;3.45;0.35;;;23.90;99.90;;;;;;5117858;27;20205;-65
2022/08/20 08:58:40;;;;;;;4.03;0.57;;;23.60;99.90;;;;;;5117120;27;20039;-65
2022/08/20 09:01:16;;;;;;;4.85;0.55;;;23.40;99.90;;;;;;5116904;27;20046;-65
2022/08/20 09:03:45;;;;;;;7.50;0.40;;;23.20;99.90;;;;;;5116804;27;20516;-65
2022/08/20 09:06:19;;;;;;;4.68;0.50;;;23.30;99.90;;;;;;5117461;27;20530;-66
2022/08/20 09:09:01;;;;;;;2.40;0.32;;;23.90;99.90;;;;;;5135559;27;20122;-66
2022/08/20 09:11:28;;;;;;;5.28;0.40;;;24.60;99.90;;;;;;5117248;27;20459;-66
2022/08/20 09:13:54;;;;;;;6.53;0.43;;;25.30;99.90;;;;;;5135818;27;20335;-65
2022/08/20 09:16:24;;;;;;;4.63;0.47;;;25.00;99.90;;;;;;5134641;27;20510;-66
2022/08/20 09:18:51;;;;;;;3.97;0.47;;;25.00;99.90;;;;;;5116108;27;20040;-65
2022/08/20 09:21:17;;;;;;;3.30;0.40;;;24.30;99.90;;;;;;5116460;27;20039;-66
2022/08/20 09:23:43;;;;;;;3.65;0.40;;;24.30;99.90;;;;;;5116851;27;20043;-65
2022/08/20 09:26:09;;;;;;;4.43;0.35;;;24.20;99.90;;;;;;5116507;27;20042;-65
2022/08/20 09:28:36;;;;;;;4.55;0.40;;;24.10;99.90;;;;;;5100146;27;20300;-65
2022/08/20 09:31:02;;;;;;;3.17;0.30;;;24.00;99.90;;;;;;5136086;27;20097;-66
2022/08/20 09:33:28;;;;;;;5.43;0.57;;;24.10;99.90;;;;;;5101088;27;20093;-66
2022/08/20 09:35:53;;;;;;;5.82;0.40;;;23.80;99.90;;;;;;5083632;27;20565;-66
2022/08/20 09:38:19;;;;;;;3.95;0.50;;;23.80;99.90;;;;;;5117453;27;20041;-66
2022/08/20 09:40:45;;;;;;;2.45;0.45;;;24.40;99.30;;;;;;5117691;27;20031;-66
2022/08/20 09:43:11;;;;;;;6.65;0.40;;;24.50;93.70;;;;;;5118357;27;20503;-67
2022/08/20 09:45:37;;;;;;;4.88;0.40;;;25.10;92.30;;;;;;5117746;27;20106;-67
2022/08/20 09:48:03;;;;;;;3.83;0.40;;;25.20;94.00;;;;;;5117158;27;20162;-67
2022/08/20 09:50:32;;;;;;;3.80;0.50;;;25.50;91.50;;;;;;5117114;27;20046;-66
2022/08/20 09:52:59;;;;;;;3.78;0.50;;;25.80;91.80;;;;;;5116311;27;20049;-65
2022/08/20 09:55:36;;;;;;;4.80;0.40;;;26.00;95.20;;;;;;5115483;27;20386;-66
2022/08/20 09:58:07;;;;;;;5.50;0.43;;;25.50;90.50;;;;;;5134912;27;20045;-66
2022/08/20 10:00:33;;;;;;;4.57;0.40;;;24.80;92.10;;;;;;5115614;27;20039;-66
2022/08/20 10:03:00;;;;;;;5.05;0.50;;;24.90;96.60;;;;;;5115571;27;20065;-66
2022/08/20 10:05:26;;;;;;;4.82;0.80;;;24.80;92.20;;;;;;5115574;27;20063;-66
2022/08/20 10:07:51;;;;;;;4.93;0.40;;;24.70;93.40;;;;;;5097557;27;20053;-65
2022/08/20 10:10:18;;;;;;;3.50;0.40;;;24.10;93.80;;;;;;5099324;27;20608;-66
2022/08/20 10:12:45;;;;;;;5.70;0.43;;;23.70;95.40;;;;;;5092341;27;20039;-65
2022/08/20 10:15:11;;;;;;;5.10;0.60;;;23.40;97.40;;;;;;5102745;27;20434;-65
2022/08/20 10:17:42;;;;;;;3.03;0.30;;;23.50;98.40;;;;;;5102606;27;21020;-65
2022/08/20 10:20:10;;;;;;;3.58;0.43;;;24.30;95.40;;;;;;5112283;27;20094;-65
2022/08/20 10:22:36;;;;;;;6.43;0.60;;;24.50;99.70;;;;;;5110863;27;20246;-66
2022/08/20 10:25:02;;;;;;;4.90;0.40;;;25.10;90.50;;;;;;5129735;27;20639;-66
2022/08/20 10:27:28;;;;;;;5.30;0.40;;;25.70;90.10;;;;;;5111184;27;20062;-66
2022/08/20 10:29:54;;;;;;;4.68;0.47;;;25.90;92.90;;;;;;5111556;27;20049;-63
2022/08/20 10:32:19;;;;;;;5.13;0.60;;;25.80;92.70;;;;;;5093811;27;20220;-65
2022/08/20 10:34:45;;;;;;;3.63;0.40;;;25.60;93.50;;;;;;5112740;27;20042;-66
2022/08/20 10:37:17;;;;;;;4.78;0.50;;;25.30;91.10;;;;;;5114259;27;20265;-67
2022/08/20 10:39:43;;;;;;;4.60;0.50;;;25.10;90.70;;;;;;5114051;27;20038;-66
2022/08/20 10:42:09;;;;;;;6.40;0.47;;;25.10;90.20;;;;;;5095246;27;20042;-66
2022/08/20 10:44:35;;;;;;;8.82;1.00;;;25.70;89.60;;;;;;5114747;27;20046;-66
2022/08/20 10:47:25;;;;;;;7.80;0.43;;;25.50;90.50;;;;;;5098608;27;20353;-66
2022/08/20 10:49:54;;;;;;;5.75;0.45;;;25.00;87.00;;;;;;5113969;27;20243;-65
2022/08/20 10:52:21;;;;;;;6.28;1.15;;;24.70;89.70;;;;;;5138249;27;20039;-67
2022/08/20 10:54:48;;;;;;;5.72;0.88;;;24.00;93.20;;;;;;5117470;27;20038;-66
2022/08/20 10:57:34;;;;;;;4.50;0.50;;;23.60;95.60;;;;;;5127703;27;20095;-66
2022/08/20 11:00:00;;;;;;;5.43;0.95;;;23.40;98.90;;;;;;5110896;27;20068;-66
2022/08/20 11:02:27;;;;;;;5.80;0.60;;;23.20;99.90;;;;;;5126029;27;20051;-64
2022/08/20 11:04:53;;;;;;;4.80;0.68;;;23.30;99.90;;;;;;5092262;27;20072;-66
2022/08/20 11:07:31;;;;;;;5.68;0.82;;;23.90;99.90;;;;;;5127289;27;20051;-64
2022/08/20 11:09:57;;;;;;;5.13;0.50;;;24.20;99.90;;;;;;5109728;27;20038;-64
2022/08/20 11:12:24;;;;;;;5.07;0.50;;;24.50;97.40;;;;;;5126444;27;20488;-67
2022/08/20 11:14:51;;;;;;;5.97;0.57;;;24.50;95.60;;;;;;5127240;27;20593;-65
2022/08/20 11:17:39;;;;;;;3.83;0.50;;;24.00;94.40;;;;;;5092394;27;20038;-66
2022/08/20 11:20:06;;;;;;;4.40;0.63;;;23.70;96.80;;;;;;5128047;27;20442;-66
2022/08/20 11:22:33;;;;;;;5.45;0.57;;;23.60;98.60;;;;;;5110039;27;20042;-66
2022/08/20 11:24:59;;;;;;;10.55;0.70;;;23.60;94.70;;;;;;5127300;27;20143;-66
2022/08/20 11:27:29;;;;;;;4.78;0.80;;;24.10;92.10;;;;;;5127151;27;20046;-63
2022/08/20 11:29:54;;;;;;;5.15;0.60;;;25.30;91.20;;;;;;5126460;27;20047;-65
2022/08/20 11:32:21;;;;;;;4.25;0.57;;;25.80;87.10;;;;;;5126873;27;20103;-65
2022/08/20 11:34:47;;;;;;;4.80;0.60;;;25.60;83.30;;;;;;5109822;27;20078;-64
2022/08/20 11:37:14;;;;;;;5.13;0.50;;;25.50;88.70;;;;;;5126303;27;20042;-65
2022/08/20 11:39:40;;;;;;;4.82;0.52;;;25.80;85.90;;;;;;5107556;27;20050;-64
2022/08/20 11:42:06;;;;;;;5.68;0.68;;;25.70;81.50;;;;;;5108818;27;20050;-65
2022/08/20 11:44:31;;;;;;;5.53;0.50;;;25.40;82.10;;;;;;5108853;27;20512;-64
2022/08/20 11:47:03;;;;;;;4.70;0.50;;;25.10;84.40;;;;;;5126812;27;20507;-66
2022/08/20 11:49:33;;;;;;;5.15;0.60;;;25.00;87.90;;;;;;5109355;27;20099;-65
2022/08/20 11:51:59;;;;;;;5.72;0.63;;;24.90;88.10;;;;;;5126404;27;20042;-65
2022/08/20 11:54:27;;;;;;;4.68;0.50;;;24.60;90.30;;;;;;5145450;27;20118;-65
2022/08/20 11:56:56;;;;;;;6.68;0.80;;;25.30;90.10;;;;;;5144631;27;20094;-65
2022/08/20 11:59:23;;;;;;;7.85;0.70;;;26.20;88.40;;;;;;5108575;27;20141;-66
2022/08/20 12:01:49;;;;;;;7.63;0.73;;;26.80;84.30;;;;;;5125739;27;20117;-65
2022/08/20 12:04:15;;;;;;;5.43;0.63;;;27.10;87.30;;;;;;5108076;27;20234;-65
2022/08/20 12:06:40;;;;;;;5.97;0.60;;;27.60;83.70;;;;;;5143273;27;20050;-65
2022/08/20 12:09:06;;;;;;;4.13;0.55;;;27.70;86.20;;;;;;5082503;27;20111;-67
2022/08/20 12:11:32;;;;;;;6.05;0.73;;;27.50;79.00;;;;;;5114952;27;21014;-67
2022/08/20 12:13:57;;;;;;;4.18;0.43;;;26.70;74.20;;;;;;5117820;27;20157;-67
2022/08/20 12:16:23;;;;;;;4.80;0.50;;;25.50;72.80;;;;;;5119135;27;20083;-66
2022/08/20 12:18:49;;;;;;;3.55;0.63;;;25.20;73.20;;;;;;5119593;27;20038;-66
2022/08/20 12:21:15;;;;;;;4.32;0.60;;;25.10;74.30;;;;;;5118949;27;20091;-67
2022/08/20 12:23:41;;;;;;;4.18;0.60;;;24.70;76.20;;;;;;5101425;27;20042;-66
2022/08/20 12:26:06;;;;;;;5.18;0.50;;;24.60;77.70;;;;;;5118496;27;20054;-67
2022/08/20 12:28:32;;;;;;;4.75;0.63;;;24.50;77.60;;;;;;5118668;27;20043;-66
2022/08/20 12:30:58;;;;;;;5.68;0.50;;;24.60;78.10;;;;;;5101789;27;20648;-66
2022/08/20 12:33:24;;;;;;;5.63;0.50;;;24.40;80.20;;;;;;5118322;27;20654;-67
2022/08/20 12:35:50;;;;;;;6.32;0.70;;;24.10;91.00;;;;;;5118185;27;20042;-66
2022/08/20 12:38:16;;;;;;;5.15;0.70;;;23.90;96.70;;;;;;5100822;27;20149;-66
2022/08/20 12:40:42;;;;;;;6.40;0.70;;;24.20;99.90;;;;;;5101125;27;20035;-66
2022/08/20 12:43:08;;;;;;;7.30;0.68;;;24.90;99.90;;;;;;5100902;27;20057;-67
2022/08/20 12:45:35;;;;;;;8.82;1.15;;;26.10;98.70;;;;;;5135750;27;20146;-67
2022/08/20 12:48:06;;;;;;;5.45;0.70;;;26.90;97.70;;;;;;5117540;27;20074;-67
2022/08/20 12:50:33;;;;;;;5.13;0.93;;;27.00;95.20;;;;;;5100003;27;20110;-67
2022/08/20 12:53:00;;;;;;;7.22;0.88;;;26.50;95.00;;;;;;5117223;27;20598;-67